Terminal Aerodrome Forecast
Issued by NWS Knoxville/Tri Cities, TN

Home | Current Version | Previous Version | Text Only | Print | Product List | Glossary On
Versions: 1 2 3 4 5 6 7 8 9 10 11 12 13 14 15 16 17 18 19 20 21 22 23 24 25 26 27 28 29 30 31 32 33 34 35 36 37 38
000
FTUS44 KMRX 272322
TAFCHA
TAF
KCHA 272322Z 2800/2824 13004KT P6SM SCT050 BKN150
     FM280900 VRB03KT P6SM BKN035
     FM281300 04007KT P6SM -SHRA BKN030
     FM281600 05008KT 5SM SHRA BKN025
     FM281900 05008KT P6SM VCSH BKN030=

USA.gov is the U.S. government's official web portal to all federal, state and local government web resources and services.